createdAt,value
2017-10-30T00:01:50.483Z,8.40
2017-10-30T00:04:17.939Z,8.40
2017-10-30T00:06:45.412Z,8.50
2017-10-30T00:09:12.877Z,8.50
2017-10-30T00:11:41.107Z,8.30
2017-10-30T00:14:08.575Z,8.30
2017-10-30T00:16:36.032Z,8.30
2017-10-30T00:19:03.508Z,8.20
2017-10-30T00:21:30.973Z,8.20
2017-10-30T00:23:58.425Z,8.10
2017-10-30T00:26:26.082Z,8.10
2017-10-30T00:28:53.557Z,8.00
2017-10-30T00:31:21.823Z,8.00
2017-10-30T00:33:49.436Z,8.00
2017-10-30T00:36:16.903Z,7.90
2017-10-30T00:38:45.145Z,7.90
2017-10-30T00:41:12.619Z,7.90
2017-10-30T00:43:41.145Z,7.90
2017-10-30T00:46:09.291Z,7.90
2017-10-30T00:48:37.768Z,7.90
2017-10-30T00:51:05.254Z,7.90
2017-10-30T00:53:32.699Z,7.80
2017-10-30T00:56:00.191Z,7.80
2017-10-30T00:58:29.067Z,7.70
2017-10-30T01:00:57.310Z,7.70
2017-10-30T01:03:24.784Z,7.60
2017-10-30T01:05:52.261Z,7.60
2017-10-30T01:08:19.905Z,7.60
2017-10-30T01:10:47.363Z,7.60
2017-10-30T01:13:15.610Z,7.50
2017-10-30T01:15:43.062Z,7.40
2017-10-30T01:18:10.514Z,7.40
2017-10-30T01:20:38.771Z,7.40
2017-10-30T01:23:06.225Z,7.30
2017-10-30T01:25:33.741Z,7.30
2017-10-30T01:28:01.296Z,7.30
2017-10-30T01:30:29.517Z,7.30
2017-10-30T01:32:57.734Z,7.20
2017-10-30T01:35:25.199Z,7.20
2017-10-30T01:37:52.693Z,7.20
2017-10-30T01:40:20.927Z,7.20
2017-10-30T01:42:49.208Z,7.10
2017-10-30T01:45:16.659Z,7.10
2017-10-30T01:47:44.907Z,7.10
2017-10-30T01:50:12.385Z,7.10
2017-10-30T01:52:39.855Z,7.10
2017-10-30T01:55:07.316Z,7.10
2017-10-30T01:57:36.291Z,7.10
2017-10-30T02:00:03.743Z,7.10
2017-10-30T02:02:31.195Z,7.10
2017-10-30T02:04:58.667Z,7.00
2017-10-30T02:07:26.888Z,7.00
2017-10-30T02:09:54.460Z,6.90
2017-10-30T02:12:21.932Z,6.90
2017-10-30T02:14:49.395Z,6.90
2017-10-30T02:17:16.875Z,6.90
2017-10-30T02:19:44.342Z,6.90
2017-10-30T02:22:11.890Z,6.90
2017-10-30T02:24:39.346Z,6.90
2017-10-30T02:27:08.318Z,7.00
2017-10-30T02:29:35.783Z,7.00
2017-10-30T02:32:03.247Z,7.10
2017-10-30T02:34:30.725Z,7.10
2017-10-30T02:36:58.943Z,7.30
2017-10-30T02:39:26.430Z,7.30
2017-10-30T02:41:53.896Z,7.40
2017-10-30T02:44:22.316Z,7.50
2017-10-30T02:46:49.831Z,7.60
2017-10-30T02:49:18.100Z,7.60
2017-10-30T02:51:46.207Z,7.60
2017-10-30T02:54:13.681Z,7.70
2017-10-30T02:56:41.154Z,7.70
2017-10-30T02:59:08.621Z,7.80
2017-10-30T03:01:36.093Z,7.80
2017-10-30T03:04:03.563Z,7.80
2017-10-30T03:06:31.027Z,7.80
2017-10-30T03:08:59.250Z,7.80
2017-10-30T03:11:26.870Z,7.80
2017-10-30T03:13:55.087Z,7.80
2017-10-30T03:16:22.588Z,7.80
2017-10-30T03:18:50.827Z,7.90
2017-10-30T03:21:18.287Z,7.90
2017-10-30T03:23:45.787Z,7.90
2017-10-30T03:26:13.262Z,7.90
2017-10-30T03:28:41.478Z,7.80
2017-10-30T03:31:08.966Z,7.80
2017-10-30T03:33:37.201Z,7.70
2017-10-30T03:36:04.654Z,7.70
2017-10-30T03:38:32.111Z,7.80
2017-10-30T03:40:59.615Z,7.70
2017-10-30T03:43:27.094Z,7.70
2017-10-30T03:45:55.275Z,7.70
2017-10-30T03:48:22.735Z,7.70
2017-10-30T03:50:50.251Z,7.70
2017-10-30T03:53:17.808Z,7.60
2017-10-30T03:55:45.271Z,7.60
2017-10-30T03:58:12.728Z,7.50
2017-10-30T04:00:40.191Z,7.50
2017-10-30T04:03:08.363Z,7.50
2017-10-30T04:05:35.821Z,7.50
2017-10-30T04:08:03.267Z,7.40
2017-10-30T04:10:30.819Z,7.30
2017-10-30T04:12:59.231Z,7.30
2017-10-30T04:15:28.312Z,7.20
2017-10-30T04:17:55.782Z,7.10
2017-10-30T04:20:24.042Z,7.20
2017-10-30T04:22:51.487Z,7.20
2017-10-30T04:25:18.960Z,7.10
2017-10-30T04:27:46.412Z,7.00
2017-10-30T04:30:13.867Z,7.00
2017-10-30T04:32:41.331Z,7.00
2017-10-30T04:35:09.548Z,7.00
2017-10-30T04:37:37.020Z,6.90
2017-10-30T04:40:04.496Z,7.00
2017-10-30T04:42:31.950Z,6.90
2017-10-30T04:44:59.399Z,6.90
2017-10-30T04:47:27.784Z,6.90
2017-10-30T04:49:55.308Z,7.00
2017-10-30T04:52:22.755Z,7.00
2017-10-30T04:54:50.227Z,7.00
2017-10-30T04:57:17.679Z,7.10
2017-10-30T04:59:45.166Z,7.10
2017-10-30T05:02:12.628Z,7.20
2017-10-30T05:04:40.078Z,7.30
2017-10-30T05:07:07.740Z,7.30
2017-10-30T05:09:35.218Z,7.30
2017-10-30T05:12:02.723Z,7.40
2017-10-30T05:14:30.197Z,7.50
2017-10-30T05:16:57.662Z,7.50
2017-10-30T05:19:25.132Z,7.50
2017-10-30T05:21:52.579Z,7.50
2017-10-30T05:24:20.052Z,7.50
2017-10-30T05:26:48.183Z,7.50
2017-10-30T05:29:15.640Z,7.60
2017-10-30T05:31:43.110Z,7.60
2017-10-30T05:34:11.195Z,7.60
2017-10-30T05:36:38.664Z,7.60
2017-10-30T05:39:06.124Z,7.60
2017-10-30T05:41:33.579Z,7.50
2017-10-30T05:44:01.041Z,7.50
2017-10-30T05:46:28.499Z,7.40
2017-10-30T05:48:55.954Z,7.40
2017-10-30T05:51:23.442Z,7.30
2017-10-30T05:53:50.907Z,7.30
2017-10-30T05:56:18.372Z,7.20
2017-10-30T05:58:45.833Z,7.20
2017-10-30T06:01:13.301Z,7.20
2017-10-30T06:03:40.767Z,7.10
2017-10-30T06:06:08.227Z,7.10
2017-10-30T06:08:35.717Z,7.10
2017-10-30T06:11:03.163Z,7.10
2017-10-30T06:13:30.627Z,7.10
2017-10-30T06:15:58.096Z,7.20
2017-10-30T06:18:26.311Z,7.20
2017-10-30T06:20:53.771Z,7.20
2017-10-30T06:23:21.235Z,7.10
2017-10-30T06:25:48.695Z,7.20
2017-10-30T06:28:16.156Z,7.20
2017-10-30T06:30:43.619Z,7.20
2017-10-30T06:33:11.093Z,7.20
2017-10-30T06:35:38.544Z,7.30
2017-10-30T06:38:06.008Z,7.30
2017-10-30T06:40:33.470Z,7.30
2017-10-30T06:43:01.694Z,7.30
2017-10-30T06:45:29.970Z,7.40
2017-10-30T06:47:57.427Z,7.40
2017-10-30T06:50:24.884Z,7.50
2017-10-30T06:52:52.362Z,7.50
2017-10-30T06:55:19.816Z,7.60
2017-10-30T06:57:48.871Z,7.70
2017-10-30T07:00:16.333Z,7.70
2017-10-30T07:02:59.407Z,7.70
2017-10-30T07:05:27.783Z,7.70
2017-10-30T07:07:55.248Z,7.70
2017-10-30T07:10:23.525Z,7.70
2017-10-30T07:12:50.990Z,7.70
2017-10-30T07:15:19.237Z,7.60
2017-10-30T07:17:46.700Z,7.60
2017-10-30T07:20:14.259Z,7.60
2017-10-30T07:22:41.728Z,7.60
2017-10-30T07:25:09.183Z,7.60
2017-10-30T07:27:36.650Z,7.60
2017-10-30T07:30:04.880Z,7.60
2017-10-30T07:32:32.337Z,7.60
2017-10-30T07:34:59.819Z,7.60
2017-10-30T07:37:28.780Z,7.60
2017-10-30T07:39:56.252Z,7.60
2017-10-30T07:42:25.439Z,7.60
2017-10-30T07:44:52.896Z,7.60
2017-10-30T07:47:20.399Z,7.60
2017-10-30T07:49:49.333Z,7.60
2017-10-30T07:52:16.832Z,7.50
2017-10-30T07:54:44.284Z,7.60
2017-10-30T07:57:11.747Z,7.70
2017-10-30T07:59:39.211Z,7.70
2017-10-30T08:02:06.763Z,7.80
2017-10-30T08:04:34.316Z,7.80
2017-10-30T08:07:01.780Z,7.90
2017-10-30T08:09:29.248Z,8.00
2017-10-30T08:11:56.763Z,8.10
2017-10-30T08:14:24.244Z,8.20
2017-10-30T08:16:53.216Z,8.30
2017-10-30T08:19:20.704Z,8.30
2017-10-30T08:21:48.159Z,8.50
2017-10-30T08:24:15.616Z,8.60
2017-10-30T08:26:43.092Z,8.70
2017-10-30T08:29:11.352Z,9.00
2017-10-30T08:31:39.611Z,9.10
2017-10-30T08:34:08.059Z,9.10
2017-10-30T08:36:35.511Z,9.20
2017-10-30T08:39:02.976Z,9.30
2017-10-30T08:41:30.471Z,9.40
2017-10-30T08:43:57.949Z,9.60
2017-10-30T08:46:26.180Z,10.00
2017-10-30T08:48:53.699Z,10.00
2017-10-30T08:51:21.154Z,10.20
2017-10-30T08:53:48.667Z,10.30
2017-10-30T08:56:16.131Z,10.30
2017-10-30T08:58:43.607Z,10.20
2017-10-30T09:01:11.842Z,10.10
2017-10-30T09:03:39.315Z,10.10
2017-10-30T09:06:07.691Z,10.10
2017-10-30T09:08:35.164Z,10.10
2017-10-30T09:11:03.406Z,10.20
2017-10-30T09:13:30.878Z,10.20
2017-10-30T09:15:58.346Z,10.50
2017-10-30T09:18:25.815Z,10.70
2017-10-30T09:20:54.111Z,10.90
2017-10-30T09:23:21.600Z,10.90
2017-10-30T09:25:49.060Z,11.10
2017-10-30T09:28:16.528Z,11.20
2017-10-30T09:30:44.103Z,11.30
2017-10-30T09:33:11.664Z,11.40
2017-10-30T09:35:39.146Z,11.60
2017-10-30T09:38:07.374Z,11.80
2017-10-30T09:40:34.827Z,11.80
2017-10-30T09:43:02.303Z,12.00
2017-10-30T09:45:29.764Z,12.10
2017-10-30T09:47:58.039Z,12.30
2017-10-30T09:50:25.515Z,12.40
2017-10-30T09:52:53.744Z,12.50
2017-10-30T09:55:21.203Z,12.50
2017-10-30T09:57:48.692Z,12.50
2017-10-30T10:00:16.146Z,12.60
2017-10-30T10:02:43.604Z,12.70
2017-10-30T10:05:11.082Z,12.60
2017-10-30T10:07:39.314Z,12.50
2017-10-30T10:10:06.791Z,12.50
2017-10-30T10:12:34.275Z,12.50
2017-10-30T10:15:01.738Z,12.70
2017-10-30T10:17:29.208Z,12.90
2017-10-30T10:19:56.675Z,13.20
2017-10-30T10:22:24.139Z,13.30
2017-10-30T10:24:51.608Z,13.50
2017-10-30T10:27:19.077Z,13.50
2017-10-30T10:29:46.556Z,13.40
2017-10-30T10:32:14.788Z,13.10
2017-10-30T10:34:42.269Z,13.10
2017-10-30T10:37:09.734Z,13.10
2017-10-30T10:39:37.183Z,13.20
2017-10-30T10:42:04.664Z,13.30
2017-10-30T10:44:32.879Z,13.70
2017-10-30T10:47:00.340Z,13.70
2017-10-30T10:49:27.832Z,13.80
2017-10-30T10:51:55.292Z,14.10
2017-10-30T10:54:22.755Z,14.30
2017-10-30T10:56:50.987Z,14.40
2017-10-30T10:59:18.452Z,14.30
2017-10-30T11:01:45.931Z,14.40
2017-10-30T11:04:13.412Z,14.70
2017-10-30T11:06:41.644Z,14.60
2017-10-30T11:09:09.104Z,14.50
2017-10-30T11:11:36.572Z,14.40
2017-10-30T11:14:04.051Z,14.00
2017-10-30T11:16:32.281Z,13.40
2017-10-30T11:18:59.755Z,13.40
2017-10-30T11:21:27.222Z,13.30
2017-10-30T11:23:54.676Z,13.00
2017-10-30T11:26:22.158Z,12.80
2017-10-30T11:28:50.390Z,12.70
2017-10-30T11:31:17.870Z,12.70
2017-10-30T11:33:45.334Z,12.60
2017-10-30T11:36:13.551Z,12.80
2017-10-30T11:38:41.018Z,12.80
2017-10-30T11:41:08.483Z,13.00
2017-10-30T11:43:35.947Z,13.30
2017-10-30T11:46:03.403Z,13.60
2017-10-30T11:48:30.884Z,13.60
2017-10-30T11:50:58.339Z,13.70
2017-10-30T11:53:26.243Z,13.70
2017-10-30T11:55:53.710Z,13.80
2017-10-30T11:58:21.168Z,13.50
2017-10-30T12:00:48.636Z,13.30
2017-10-30T12:03:16.225Z,13.00
2017-10-30T12:05:43.674Z,12.70
2017-10-30T12:08:11.132Z,12.60
2017-10-30T12:10:38.616Z,12.60
2017-10-30T12:13:06.844Z,12.50
2017-10-30T12:15:34.307Z,12.50
2017-10-30T12:18:01.782Z,12.40
2017-10-30T12:20:29.240Z,12.40
2017-10-30T12:22:56.695Z,12.30
2017-10-30T12:25:24.166Z,12.30
2017-10-30T12:27:51.642Z,12.40
2017-10-30T12:30:19.864Z,12.10
2017-10-30T12:32:47.333Z,12.10
2017-10-30T12:35:14.803Z,12.20
2017-10-30T12:37:42.289Z,12.20
2017-10-30T12:40:10.530Z,12.40
2017-10-30T12:42:37.980Z,12.30
2017-10-30T12:45:06.406Z,12.70
2017-10-30T12:47:34.639Z,13.10
2017-10-30T12:50:02.099Z,13.00
2017-10-30T12:52:29.575Z,13.10
2017-10-30T12:54:57.840Z,12.80
2017-10-30T12:57:25.314Z,12.80
2017-10-30T12:59:53.535Z,12.20
2017-10-30T13:02:21.017Z,12.20
2017-10-30T13:04:48.484Z,12.10
2017-10-30T13:07:15.935Z,11.90
2017-10-30T13:09:44.192Z,11.80
2017-10-30T13:12:11.662Z,11.80
2017-10-30T13:14:40.044Z,11.60
2017-10-30T13:17:08.029Z,11.60
2017-10-30T13:19:35.575Z,11.70
2017-10-30T13:22:04.837Z,11.60
2017-10-30T13:24:32.303Z,11.60
2017-10-30T13:26:59.818Z,11.60
2017-10-30T13:29:28.984Z,12.10
2017-10-30T13:31:56.440Z,12.10
2017-10-30T13:34:23.916Z,12.50
2017-10-30T13:36:52.145Z,13.10
2017-10-30T13:39:19.612Z,13.00
2017-10-30T13:41:48.227Z,13.10
2017-10-30T13:44:16.471Z,13.30
2017-10-30T13:46:43.944Z,13.30
2017-10-30T13:49:11.420Z,13.50
2017-10-30T13:51:39.642Z,13.50
2017-10-30T13:54:07.111Z,13.50
2017-10-30T13:56:34.588Z,13.40
2017-10-30T13:59:02.047Z,13.20
2017-10-30T14:01:29.513Z,13.10
2017-10-30T14:03:56.997Z,13.00
2017-10-30T14:06:25.231Z,13.00
2017-10-30T14:08:52.692Z,13.00
2017-10-30T14:11:20.160Z,12.80
2017-10-30T14:13:48.692Z,12.80
2017-10-30T14:16:16.159Z,12.80
2017-10-30T14:18:43.634Z,12.80
2017-10-30T14:21:11.096Z,12.80
2017-10-30T14:23:38.564Z,12.80
2017-10-30T14:26:06.039Z,12.90
2017-10-30T14:28:34.258Z,13.00
2017-10-30T14:31:01.716Z,13.00
2017-10-30T14:33:29.197Z,13.00
2017-10-30T14:35:56.651Z,12.80
2017-10-30T14:38:24.110Z,12.80
2017-10-30T14:40:51.591Z,12.70
2017-10-30T14:43:19.812Z,12.30
2017-10-30T14:45:47.279Z,12.30
2017-10-30T14:48:14.756Z,12.20
2017-10-30T14:50:42.228Z,12.20
2017-10-30T14:53:09.678Z,12.10
2017-10-30T14:55:37.142Z,12.00
2017-10-30T14:58:05.377Z,11.90
2017-10-30T15:00:32.832Z,11.90
2017-10-30T15:03:00.316Z,11.70
2017-10-30T15:05:27.875Z,11.50
2017-10-30T15:07:55.339Z,11.40
2017-10-30T15:10:22.807Z,11.30
2017-10-30T15:12:51.023Z,11.10
2017-10-30T15:15:18.496Z,11.00
2017-10-30T15:17:45.960Z,11.10
2017-10-30T15:20:13.428Z,11.10
2017-10-30T15:22:40.895Z,11.10
2017-10-30T15:25:09.268Z,11.10
2017-10-30T15:27:36.735Z,11.00
2017-10-30T15:30:04.208Z,11.00
2017-10-30T15:32:31.664Z,11.00
2017-10-30T15:34:59.903Z,10.90
2017-10-30T15:37:27.377Z,10.90
2017-10-30T15:39:55.612Z,10.80
2017-10-30T15:42:23.067Z,10.80
2017-10-30T15:44:50.551Z,10.70
2017-10-30T15:47:18.015Z,10.70
2017-10-30T15:49:45.496Z,10.70
2017-10-30T15:52:13.732Z,10.60
2017-10-30T15:54:41.179Z,10.60
2017-10-30T15:57:08.641Z,10.50
2017-10-30T15:59:36.112Z,10.50
2017-10-30T16:02:03.567Z,10.50
2017-10-30T16:04:31.028Z,10.50
2017-10-30T16:06:58.495Z,10.40
2017-10-30T16:09:26.719Z,10.30
2017-10-30T16:11:54.188Z,10.30
2017-10-30T16:14:21.667Z,10.20
2017-10-30T16:16:49.123Z,10.10
2017-10-30T16:19:16.582Z,10.00
2017-10-30T16:21:44.047Z,10.10
2017-10-30T16:24:11.504Z,10.10
2017-10-30T16:26:38.963Z,10.00
2017-10-30T16:29:06.480Z,10.00
2017-10-30T16:31:33.940Z,9.90
2017-10-30T16:34:01.394Z,9.90
2017-10-30T16:36:28.863Z,9.90
2017-10-30T16:38:56.344Z,9.90
2017-10-30T16:41:23.796Z,9.90
2017-10-30T16:43:51.262Z,9.90
2017-10-30T16:46:18.758Z,9.90
2017-10-30T16:48:46.235Z,9.90
2017-10-30T16:51:13.727Z,9.90
2017-10-30T16:53:41.181Z,9.90
2017-10-30T16:56:09.402Z,9.90
2017-10-30T16:58:36.871Z,9.90
2017-10-30T17:01:04.335Z,9.90
2017-10-30T17:03:31.785Z,9.80
2017-10-30T17:05:59.243Z,9.80
2017-10-30T17:08:26.704Z,9.70
2017-10-30T17:10:54.156Z,9.60
2017-10-30T17:13:21.634Z,9.50
2017-10-30T17:15:49.092Z,9.40
2017-10-30T17:18:16.598Z,9.30
2017-10-30T17:20:44.848Z,9.20
2017-10-30T17:23:12.313Z,9.20
2017-10-30T17:25:40.544Z,9.10
2017-10-30T17:28:08.018Z,9.10
2017-10-30T17:30:35.475Z,9.00
2017-10-30T17:33:04.850Z,9.00
2017-10-30T17:35:32.319Z,8.90
2017-10-30T17:37:59.776Z,9.00
2017-10-30T17:40:27.236Z,8.90
2017-10-30T17:42:54.691Z,8.80
2017-10-30T17:45:22.171Z,8.70
2017-10-30T17:47:49.651Z,8.70
2017-10-30T17:50:17.956Z,8.70
2017-10-30T17:52:45.424Z,8.60
2017-10-30T17:55:12.922Z,8.60
2017-10-30T17:57:40.378Z,8.60
2017-10-30T18:00:07.827Z,8.70
2017-10-30T18:02:35.292Z,8.70
2017-10-30T18:05:02.771Z,8.80
2017-10-30T18:07:31.074Z,8.80
2017-10-30T18:09:58.532Z,8.80
2017-10-30T18:12:26.000Z,8.80
2017-10-30T18:14:53.480Z,8.90
2017-10-30T18:17:20.959Z,8.90
2017-10-30T18:19:48.427Z,8.90
2017-10-30T18:22:22.675Z,9.00
2017-10-30T18:24:50.137Z,8.90
2017-10-30T18:27:17.611Z,9.00
2017-10-30T18:29:45.079Z,9.00
2017-10-30T18:32:12.527Z,9.00
2017-10-30T18:34:40.016Z,9.10
2017-10-30T18:37:07.464Z,9.10
2017-10-30T18:39:35.403Z,9.10
2017-10-30T18:42:02.858Z,9.10
2017-10-30T18:44:30.407Z,9.20
2017-10-30T18:46:57.868Z,9.20
2017-10-30T18:49:25.327Z,9.20
2017-10-30T18:51:52.794Z,9.20
2017-10-30T18:54:20.251Z,9.10
2017-10-30T18:56:47.708Z,9.10
2017-10-30T18:59:15.167Z,9.20
2017-10-30T19:01:42.623Z,9.20
2017-10-30T19:04:10.071Z,9.30
2017-10-30T19:06:37.547Z,9.20
2017-10-30T19:09:05.020Z,9.20
2017-10-30T19:11:33.248Z,9.30
2017-10-30T19:14:00.701Z,9.30
2017-10-30T19:16:28.196Z,9.30
2017-10-30T19:18:55.721Z,9.30
2017-10-30T19:21:23.170Z,9.30
2017-10-30T19:23:50.651Z,9.30
2017-10-30T19:26:18.103Z,9.30
2017-10-30T19:28:46.580Z,9.30
2017-10-30T19:31:14.055Z,9.40
2017-10-30T19:33:41.509Z,9.40
2017-10-30T19:36:08.966Z,9.30
2017-10-30T19:38:36.440Z,9.30
2017-10-30T19:41:04.618Z,9.40
2017-10-30T19:43:32.846Z,9.40
2017-10-30T19:46:00.326Z,9.40
2017-10-30T19:48:27.781Z,9.40
2017-10-30T19:50:55.252Z,9.40
2017-10-30T19:53:22.721Z,9.30
2017-10-30T19:55:50.952Z,9.40
2017-10-30T19:58:18.409Z,9.30
2017-10-30T20:00:45.880Z,9.40
2017-10-30T20:03:13.951Z,9.40
2017-10-30T20:05:47.090Z,9.40
2017-10-30T20:08:20.215Z,9.40
2017-10-30T20:10:53.364Z,9.40
2017-10-30T20:13:21.583Z,9.50
2017-10-30T20:15:49.036Z,9.50
2017-10-30T20:18:16.499Z,9.50
2017-10-30T20:20:43.968Z,9.50
2017-10-30T20:23:11.423Z,9.50
2017-10-30T20:25:38.893Z,9.50
2017-10-30T20:28:06.345Z,9.50
2017-10-30T20:30:33.803Z,9.50
2017-10-30T20:33:01.293Z,9.60
2017-10-30T20:35:29.541Z,9.60
2017-10-30T20:37:56.999Z,9.60
2017-10-30T20:40:24.473Z,9.60
2017-10-30T20:42:51.970Z,9.60
2017-10-30T20:45:19.464Z,9.60
2017-10-30T20:47:46.980Z,9.60
2017-10-30T20:50:14.448Z,9.60
2017-10-30T20:52:42.623Z,9.60
2017-10-30T20:55:10.090Z,9.70
2017-10-30T20:57:37.547Z,9.60
2017-10-30T21:00:05.054Z,9.60
2017-10-30T21:02:33.279Z,9.60
2017-10-30T21:05:01.522Z,9.60
2017-10-30T21:07:29.115Z,9.60
2017-10-30T21:09:56.571Z,9.60
2017-10-30T21:12:24.958Z,9.50
2017-10-30T21:14:52.425Z,9.50
2017-10-30T21:17:20.704Z,9.50
2017-10-30T21:19:48.167Z,9.50
2017-10-30T21:22:16.440Z,9.50
2017-10-30T21:24:43.908Z,9.50
2017-10-30T21:27:11.394Z,9.50
2017-10-30T21:29:38.958Z,9.50
2017-10-30T21:32:06.435Z,9.50
2017-10-30T21:34:34.133Z,9.50
2017-10-30T21:37:02.111Z,9.50
2017-10-30T21:39:30.518Z,9.50
2017-10-30T21:41:57.991Z,9.50
2017-10-30T21:44:25.464Z,9.60
2017-10-30T21:46:52.927Z,9.60
2017-10-30T21:49:20.391Z,9.60
2017-10-30T21:51:48.676Z,9.60
2017-10-30T21:54:16.195Z,9.60
2017-10-30T21:56:43.651Z,9.60
2017-10-30T21:59:11.116Z,9.60
2017-10-30T22:01:38.582Z,9.60
2017-10-30T22:04:06.155Z,9.60
2017-10-30T22:06:33.633Z,9.60
2017-10-30T22:09:02.222Z,9.60
2017-10-30T22:11:31.195Z,9.60
2017-10-30T22:13:58.655Z,9.60
2017-10-30T22:16:26.208Z,9.60
2017-10-30T22:18:53.666Z,9.60
2017-10-30T22:21:21.131Z,9.60
2017-10-30T22:23:49.373Z,9.60
2017-10-30T22:26:16.834Z,9.60
2017-10-30T22:28:44.294Z,9.60
2017-10-30T22:31:11.776Z,9.60
2017-10-30T22:33:39.252Z,9.60
2017-10-30T22:36:07.495Z,9.50
2017-10-30T22:38:34.988Z,9.50
2017-10-30T22:41:03.224Z,9.60
2017-10-30T22:43:30.827Z,9.50
2017-10-30T22:45:58.355Z,9.50
2017-10-30T22:48:25.799Z,9.50
2017-10-30T22:50:53.281Z,9.50
2017-10-30T22:53:22.354Z,9.50
2017-10-30T22:55:49.828Z,9.50
2017-10-30T22:58:18.084Z,9.50
2017-10-30T23:00:45.541Z,9.40
2017-10-30T23:03:12.998Z,9.50
2017-10-30T23:05:40.468Z,9.40
2017-10-30T23:08:08.523Z,9.40
2017-10-30T23:10:35.989Z,9.40
2017-10-30T23:13:03.458Z,9.40
2017-10-30T23:15:31.687Z,9.40
2017-10-30T23:17:59.147Z,9.40
2017-10-30T23:20:26.615Z,9.40
2017-10-30T23:22:55.906Z,9.40
2017-10-30T23:25:23.357Z,9.50
2017-10-30T23:27:50.849Z,9.50
2017-10-30T23:30:19.077Z,9.50
2017-10-30T23:32:46.606Z,9.40
2017-10-30T23:35:15.707Z,9.50
2017-10-30T23:37:43.161Z,9.40
2017-10-30T23:40:10.630Z,9.50
2017-10-30T23:42:38.098Z,9.50
2017-10-30T23:45:05.593Z,9.50
2017-10-30T23:47:33.051Z,9.50
2017-10-30T23:50:02.684Z,9.50
2017-10-30T23:52:31.355Z,9.50
2017-10-30T23:54:59.583Z,9.50
2017-10-30T23:57:27.055Z,9.50
2017-10-30T23:59:54.543Z,9.50
